sensor_id;sensor_type;location;lat;lon;timestamp;pressure;altitude;pressure_sealevel;temperature;humidity
22743;BME280;11538;48.884;8.696;2023-11-19T00:00:09;98664.72;;;7.72;100.00
22743;BME280;11538;48.884;8.696;2023-11-19T00:02:41;98664.72;;;7.72;100.00
22743;BME280;11538;48.884;8.696;2023-11-19T00:05:10;98660.41;;;7.71;100.00
22743;BME280;11538;48.884;8.696;2023-11-19T00:07:41;98647.41;;;7.73;100.00
22743;BME280;11538;48.884;8.696;2023-11-19T00:10:13;98650.13;;;7.73;100.00
22743;BME280;11538;48.884;8.696;2023-11-19T00:12:42;98649.84;;;7.75;100.00
22743;BME280;11538;48.884;8.696;2023-11-19T00:15:16;98649.56;;;7.76;100.00
22743;BME280;11538;48.884;8.696;2023-11-19T00:17:45;98641.97;;;7.79;100.00
22743;BME280;11538;48.884;8.696;2023-11-19T00:20:18;98631.16;;;7.79;100.00
22743;BME280;11538;48.884;8.696;2023-11-19T00:22:46;98622.28;;;7.78;100.00
22743;BME280;11538;48.884;8.696;2023-11-19T00:25:18;98624.97;;;7.78;100.00
22743;BME280;11538;48.884;8.696;2023-11-19T00:27:45;98630.91;;;7.80;100.00
22743;BME280;11538;48.884;8.696;2023-11-19T00:30:13;98625.50;;;7.80;100.00
22743;BME280;11538;48.884;8.696;2023-11-19T00:32:41;98622.22;;;7.83;100.00
22743;BME280;11538;48.884;8.696;2023-11-19T00:35:09;98611.13;;;7.85;100.00
22743;BME280;11538;48.884;8.696;2023-11-19T00:37:41;98606.81;;;7.84;100.00
22743;BME280;11538;48.884;8.696;2023-11-19T00:40:10;98599.03;;;7.82;100.00
22743;BME280;11538;48.884;8.696;2023-11-19T00:42:38;98602.50;;;7.83;100.00
22743;BME280;11538;48.884;8.696;2023-11-19T00:45:05;98600.06;;;7.86;100.00
22743;BME280;11538;48.884;8.696;2023-11-19T00:47:37;98598.16;;;7.87;100.00
22743;BME280;11538;48.884;8.696;2023-11-19T00:50:04;98607.59;;;7.89;100.00
22743;BME280;11538;48.884;8.696;2023-11-19T00:52:31;98604.59;;;7.91;100.00
22743;BME280;11538;48.884;8.696;2023-11-19T00:54:58;98597.00;;;7.93;100.00
22743;BME280;11538;48.884;8.696;2023-11-19T00:57:25;98591.06;;;7.96;100.00
22743;BME280;11538;48.884;8.696;2023-11-19T00:59:53;98588.06;;;7.98;100.00
22743;BME280;11538;48.884;8.696;2023-11-19T01:02:20;98584.56;;;7.97;100.00
22743;BME280;11538;48.884;8.696;2023-11-19T01:04:47;98581.84;;;7.97;100.00
22743;BME280;11538;48.884;8.696;2023-11-19T01:07:14;98585.06;;;7.99;100.00
22743;BME280;11538;48.884;8.696;2023-11-19T01:09:44;98582.94;;;7.96;100.00
22743;BME280;11538;48.884;8.696;2023-11-19T01:12:11;98590.81;;;7.93;100.00
22743;BME280;11538;48.884;8.696;2023-11-19T01:14:38;98585.09;;;7.94;100.00
22743;BME280;11538;48.884;8.696;2023-11-19T01:17:05;98592.16;;;7.95;100.00
22743;BME280;11538;48.884;8.696;2023-11-19T01:19:32;98585.66;;;7.96;100.00
22743;BME280;11538;48.884;8.696;2023-11-19T01:21:59;98579.94;;;7.98;100.00
22743;BME280;11538;48.884;8.696;2023-11-19T01:24:26;98578.59;;;8.00;100.00
22743;BME280;11538;48.884;8.696;2023-11-19T01:26:55;98582.91;;;8.01;100.00
22743;BME280;11538;48.884;8.696;2023-11-19T01:29:24;98586.69;;;8.00;100.00
22743;BME280;11538;48.884;8.696;2023-11-19T01:31:51;98580.19;;;8.01;100.00
22743;BME280;11538;48.884;8.696;2023-11-19T01:34:18;98584.50;;;8.02;100.00
22743;BME280;11538;48.884;8.696;2023-11-19T01:36:47;98579.88;;;8.03;100.00
22743;BME280;11538;48.884;8.696;2023-11-19T01:39:15;98583.41;;;8.03;100.00
22743;BME280;11538;48.884;8.696;2023-11-19T01:41:47;98583.09;;;8.05;100.00
22743;BME280;11538;48.884;8.696;2023-11-19T01:44:14;98572.31;;;8.05;100.00
22743;BME280;11538;48.884;8.696;2023-11-19T01:46:44;98580.91;;;8.07;100.00
22743;BME280;11538;48.884;8.696;2023-11-19T01:49:19;98573.34;;;8.09;100.00
22743;BME280;11538;48.884;8.696;2023-11-19T01:51:48;98572.47;;;8.14;100.00
22743;BME280;11538;48.884;8.696;2023-11-19T01:54:15;98577.81;;;8.19;100.00
22743;BME280;11538;48.884;8.696;2023-11-19T01:56:43;98571.53;;;8.24;100.00
22743;BME280;11538;48.884;8.696;2023-11-19T01:59:12;98568.56;;;8.25;100.00
22743;BME280;11538;48.884;8.696;2023-11-19T02:01:41;98565.28;;;8.28;100.00
22743;BME280;11538;48.884;8.696;2023-11-19T02:04:09;98567.41;;;8.31;100.00
22743;BME280;11538;48.884;8.696;2023-11-19T02:06:40;98562.19;;;8.35;100.00
22743;BME280;11538;48.884;8.696;2023-11-19T02:09:08;98568.63;;;8.39;100.00
22743;BME280;11538;48.884;8.696;2023-11-19T02:11:35;98560.25;;;8.41;100.00
22743;BME280;11538;48.884;8.696;2023-11-19T02:14:02;98572.38;;;8.43;100.00
22743;BME280;11538;48.884;8.696;2023-11-19T02:16:31;98556.38;;;8.47;100.00
22743;BME280;11538;48.884;8.696;2023-11-19T02:18:58;98552.59;;;8.48;100.00
22743;BME280;11538;48.884;8.696;2023-11-19T02:21:25;98555.84;;;8.50;100.00
22743;BME280;11538;48.884;8.696;2023-11-19T02:23:52;98557.44;;;8.51;100.00
22743;BME280;11538;48.884;8.696;2023-11-19T02:26:33;98556.34;;;8.52;100.00
22743;BME280;11538;48.884;8.696;2023-11-19T02:29:03;98546.63;;;8.51;100.00
22743;BME280;11538;48.884;8.696;2023-11-19T02:31:34;98552.53;;;8.53;100.00
22743;BME280;11538;48.884;8.696;2023-11-19T02:34:01;98554.94;;;8.55;100.00
22743;BME280;11538;48.884;8.696;2023-11-19T02:36:29;98557.06;;;8.58;100.00
22743;BME280;11538;48.884;8.696;2023-11-19T02:38:56;98564.06;;;8.59;100.00
22743;BME280;11538;48.884;8.696;2023-11-19T02:41:23;98555.69;;;8.60;100.00
22743;BME280;11538;48.884;8.696;2023-11-19T02:43:51;98549.19;;;8.61;100.00
22743;BME280;11538;48.884;8.696;2023-11-19T02:46:18;98542.69;;;8.62;100.00
22743;BME280;11538;48.884;8.696;2023-11-19T02:48:46;98554.25;;;8.68;100.00
22743;BME280;11538;48.884;8.696;2023-11-19T02:51:13;98557.47;;;8.70;100.00
22743;BME280;11538;48.884;8.696;2023-11-19T02:53:40;98561.19;;;8.74;100.00
22743;BME280;11538;48.884;8.696;2023-11-19T02:56:08;98554.38;;;8.77;100.00
22743;BME280;11538;48.884;8.696;2023-11-19T02:59:19;98563.34;;;8.91;100.00
22743;BME280;11538;48.884;8.696;2023-11-19T03:01:54;98566.91;;;9.06;100.00
22743;BME280;11538;48.884;8.696;2023-11-19T03:04:21;98566.75;;;9.16;100.00
22743;BME280;11538;48.884;8.696;2023-11-19T03:06:49;98565.41;;;9.33;100.00
22743;BME280;11538;48.884;8.696;2023-11-19T03:09:16;98551.03;;;9.51;100.00
22743;BME280;11538;48.884;8.696;2023-11-19T03:11:45;98553.34;;;9.72;100.00
22743;BME280;11538;48.884;8.696;2023-11-19T03:14:12;98542.41;;;9.77;100.00
22743;BME280;11538;48.884;8.696;2023-11-19T03:16:39;98537.69;;;9.83;100.00
22743;BME280;11538;48.884;8.696;2023-11-19T03:19:06;98531.38;;;9.88;100.00
22743;BME280;11538;48.884;8.696;2023-11-19T03:21:33;98525.97;;;9.88;100.00
22743;BME280;11538;48.884;8.696;2023-11-19T03:24:00;98530.19;;;9.94;100.00
22743;BME280;11538;48.884;8.696;2023-11-19T03:26:27;98538.03;;;9.95;100.00
22743;BME280;11538;48.884;8.696;2023-11-19T03:28:54;98535.00;;;9.97;100.00
22743;BME280;11538;48.884;8.696;2023-11-19T03:31:22;98538.69;;;10.01;100.00
22743;BME280;11538;48.884;8.696;2023-11-19T03:33:49;98538.69;;;10.01;100.00
22743;BME280;11538;48.884;8.696;2023-11-19T03:36:16;98546.34;;;9.99;100.00
22743;BME280;11538;48.884;8.696;2023-11-19T03:38:43;98544.94;;;10.02;100.00
22743;BME280;11538;48.884;8.696;2023-11-19T03:41:14;98540.81;;;10.04;100.00
22743;BME280;11538;48.884;8.696;2023-11-19T03:43:41;98533.69;;;10.08;100.00
22743;BME280;11538;48.884;8.696;2023-11-19T03:46:21;98533.06;;;10.12;100.00
22743;BME280;11538;48.884;8.696;2023-11-19T03:48:49;98527.03;;;10.15;100.00
22743;BME280;11538;48.884;8.696;2023-11-19T03:51:17;98521.13;;;10.27;100.00
22743;BME280;11538;48.884;8.696;2023-11-19T03:53:45;98522.00;;;10.36;100.00
22743;BME280;11538;48.884;8.696;2023-11-19T03:56:13;98520.41;;;10.35;100.00
22743;BME280;11538;48.884;8.696;2023-11-19T03:58:40;98521.50;;;10.34;100.00
22743;BME280;11538;48.884;8.696;2023-11-19T04:01:11;98530.06;;;10.41;100.00
22743;BME280;11538;48.884;8.696;2023-11-19T04:03:41;98532.44;;;10.43;100.00
22743;BME280;11538;48.884;8.696;2023-11-19T04:06:11;98532.09;;;10.58;100.00
22743;BME280;11538;48.884;8.696;2023-11-19T04:08:38;98534.72;;;10.63;100.00
22743;BME280;11538;48.884;8.696;2023-11-19T04:11:05;98535.22;;;10.65;100.00
22743;BME280;11538;48.884;8.696;2023-11-19T04:13:32;98535.72;;;10.67;100.00
22743;BME280;11538;48.884;8.696;2023-11-19T04:15:59;98532.19;;;10.67;100.00
22743;BME280;11538;48.884;8.696;2023-11-19T04:18:26;98531.28;;;10.72;100.00
22743;BME280;11538;48.884;8.696;2023-11-19T04:20:53;98523.81;;;10.77;100.00
22743;BME280;11538;48.884;8.696;2023-11-19T04:23:20;98524.13;;;10.76;100.00
22743;BME280;11538;48.884;8.696;2023-11-19T04:25:47;98534.75;;;10.86;100.00
22743;BME280;11538;48.884;8.696;2023-11-19T04:28:14;98532.66;;;10.83;100.00
22743;BME280;11538;48.884;8.696;2023-11-19T04:30:41;98536.28;;;10.78;100.00
22743;BME280;11538;48.884;8.696;2023-11-19T04:33:08;98535.47;;;10.78;100.00
22743;BME280;11538;48.884;8.696;2023-11-19T04:35:35;98527.84;;;10.80;100.00
22743;BME280;11538;48.884;8.696;2023-11-19T04:38:02;98526.34;;;10.74;100.00
22743;BME280;11538;48.884;8.696;2023-11-19T04:40:29;98524.50;;;10.83;100.00
22743;BME280;11538;48.884;8.696;2023-11-19T04:42:56;98521.78;;;10.83;100.00
22743;BME280;11538;48.884;8.696;2023-11-19T04:45:23;98521.97;;;10.87;100.00
22743;BME280;11538;48.884;8.696;2023-11-19T04:47:49;98528.22;;;10.87;100.00
22743;BME280;11538;48.884;8.696;2023-11-19T04:50:16;98529.19;;;10.91;100.00
22743;BME280;11538;48.884;8.696;2023-11-19T04:52:44;98526.00;;;10.89;100.00
22743;BME280;11538;48.884;8.696;2023-11-19T04:55:12;98519.34;;;10.95;100.00
22743;BME280;11538;48.884;8.696;2023-11-19T04:57:40;98527.34;;;11.01;100.00
22743;BME280;11538;48.884;8.696;2023-11-19T05:00:08;98521.91;;;11.01;100.00
22743;BME280;11538;48.884;8.696;2023-11-19T05:02:38;98527.50;;;11.04;100.00
22743;BME280;11538;48.884;8.696;2023-11-19T05:05:05;98522.28;;;11.08;100.00
22743;BME280;11538;48.884;8.696;2023-11-19T05:07:32;98529.94;;;11.06;100.00
22743;BME280;11538;48.884;8.696;2023-11-19T05:09:59;98524.19;;;11.07;100.00
22743;BME280;11538;48.884;8.696;2023-11-19T05:12:26;98524.88;;;11.13;100.00
22743;BME280;11538;48.884;8.696;2023-11-19T05:14:53;98525.84;;;11.17;100.00
22743;BME280;11538;48.884;8.696;2023-11-19T05:17:20;98519.31;;;11.18;100.00
22743;BME280;11538;48.884;8.696;2023-11-19T05:19:47;98529.84;;;11.20;100.00
22743;BME280;11538;48.884;8.696;2023-11-19T05:22:15;98518.38;;;11.23;100.00
22743;BME280;11538;48.884;8.696;2023-11-19T05:24:42;98519.97;;;11.24;100.00
22743;BME280;11538;48.884;8.696;2023-11-19T05:27:09;98531.84;;;11.28;100.00
22743;BME280;11538;48.884;8.696;2023-11-19T05:29:38;98515.72;;;11.32;100.00
22743;BME280;11538;48.884;8.696;2023-11-19T05:32:08;98500.88;;;11.38;100.00
22743;BME280;11538;48.884;8.696;2023-11-19T05:34:35;98504.09;;;11.40;100.00
22743;BME280;11538;48.884;8.696;2023-11-19T05:37:02;98501.50;;;11.35;100.00
22743;BME280;11538;48.884;8.696;2023-11-19T05:39:29;98491.34;;;11.40;100.00
22743;BME280;11538;48.884;8.696;2023-11-19T05:41:56;98494.34;;;11.39;100.00
22743;BME280;11538;48.884;8.696;2023-11-19T05:44:23;98494.81;;;11.32;100.00
22743;BME280;11538;48.884;8.696;2023-11-19T05:46:50;98494.00;;;11.32;100.00
22743;BME280;11538;48.884;8.696;2023-11-19T05:49:17;98497.81;;;11.31;100.00
22743;BME280;11538;48.884;8.696;2023-11-19T05:51:44;98494.97;;;11.36;100.00
22743;BME280;11538;48.884;8.696;2023-11-19T05:54:12;98493.56;;;11.38;100.00
22743;BME280;11538;48.884;8.696;2023-11-19T05:56:40;98502.13;;;11.32;100.00
22743;BME280;11538;48.884;8.696;2023-11-19T05:59:07;98498.00;;;11.34;100.00
22743;BME280;11538;48.884;8.696;2023-11-19T06:01:41;98508.69;;;11.31;100.00
22743;BME280;11538;48.884;8.696;2023-11-19T06:04:08;98504.84;;;11.32;100.00
22743;BME280;11538;48.884;8.696;2023-11-19T06:06:36;98509.16;;;11.33;100.00
22743;BME280;11538;48.884;8.696;2023-11-19T06:09:04;98517.03;;;11.34;100.00
22743;BME280;11538;48.884;8.696;2023-11-19T06:11:35;98513.00;;;11.32;100.00
22743;BME280;11538;48.884;8.696;2023-11-19T06:14:02;98520.84;;;11.33;100.00
22743;BME280;11538;48.884;8.696;2023-11-19T06:16:32;98522.81;;;11.41;100.00
22743;BME280;11538;48.884;8.696;2023-11-19T06:18:59;98523.47;;;11.47;100.00
22743;BME280;11538;48.884;8.696;2023-11-19T06:21:26;98517.25;;;11.47;100.00
22743;BME280;11538;48.884;8.696;2023-11-19T06:23:53;98515.81;;;11.49;100.00
22743;BME280;11538;48.884;8.696;2023-11-19T06:26:21;98517.09;;;11.52;100.00
22743;BME280;11538;48.884;8.696;2023-11-19T06:28:49;98530.50;;;11.48;100.00
22743;BME280;11538;48.884;8.696;2023-11-19T06:31:16;98519.81;;;11.52;100.00
22743;BME280;11538;48.884;8.696;2023-11-19T06:33:43;98511.34;;;11.53;100.00
22743;BME280;11538;48.884;8.696;2023-11-19T06:36:10;98507.16;;;11.47;100.00
22743;BME280;11538;48.884;8.696;2023-11-19T06:38:37;98510.69;;;11.48;100.00
22743;BME280;11538;48.884;8.696;2023-11-19T06:41:08;98507.31;;;11.42;100.00
22743;BME280;11538;48.884;8.696;2023-11-19T06:43:37;98505.53;;;11.37;100.00
22743;BME280;11538;48.884;8.696;2023-11-19T06:46:17;98492.13;;;11.41;100.00
22743;BME280;11538;48.884;8.696;2023-11-19T06:48:45;98495.31;;;11.34;100.00
22743;BME280;11538;48.884;8.696;2023-11-19T06:51:12;98498.19;;;11.38;100.00
22743;BME280;11538;48.884;8.696;2023-11-19T06:53:40;98496.31;;;11.47;100.00
22743;BME280;11538;48.884;8.696;2023-11-19T06:56:19;98504.94;;;11.49;100.00
22743;BME280;11538;48.884;8.696;2023-11-19T06:58:46;98501.56;;;11.44;100.00
22743;BME280;11538;48.884;8.696;2023-11-19T07:01:18;98507.78;;;11.44;100.00
22743;BME280;11538;48.884;8.696;2023-11-19T07:03:46;98512.47;;;11.52;100.00
22743;BME280;11538;48.884;8.696;2023-11-19T07:06:14;98516.47;;;11.55;100.00
22743;BME280;11538;48.884;8.696;2023-11-19T07:08:42;98524.44;;;11.51;100.00
22743;BME280;11538;48.884;8.696;2023-11-19T07:11:13;98511.34;;;11.53;100.00
22743;BME280;11538;48.884;8.696;2023-11-19T07:13:43;98522.56;;;11.61;100.00
22743;BME280;11538;48.884;8.696;2023-11-19T07:16:14;98515.22;;;11.61;100.00
22743;BME280;11538;48.884;8.696;2023-11-19T07:18:42;98525.28;;;11.61;100.00
22743;BME280;11538;48.884;8.696;2023-11-19T07:21:11;98522.44;;;11.66;100.00
22743;BME280;11538;48.884;8.696;2023-11-19T07:23:37;98523.88;;;11.72;100.00
22743;BME280;11538;48.884;8.696;2023-11-19T07:26:06;98542.28;;;11.75;100.00
22743;BME280;11538;48.884;8.696;2023-11-19T07:28:35;98528.75;;;11.84;100.00
22743;BME280;11538;48.884;8.696;2023-11-19T07:31:02;98538.97;;;11.87;100.00
22743;BME280;11538;48.884;8.696;2023-11-19T07:33:29;98550.63;;;11.88;100.00
22743;BME280;11538;48.884;8.696;2023-11-19T07:35:56;98540.50;;;12.02;100.00
22743;BME280;11538;48.884;8.696;2023-11-19T07:38:23;98550.41;;;12.07;100.00
22743;BME280;11538;48.884;8.696;2023-11-19T07:40:50;98564.88;;;12.25;100.00
22743;BME280;11538;48.884;8.696;2023-11-19T07:43:20;98565.84;;;12.29;100.00
22743;BME280;11538;48.884;8.696;2023-11-19T07:45:47;98573.03;;;12.34;100.00
22743;BME280;11538;48.884;8.696;2023-11-19T07:48:14;98576.72;;;12.29;100.00
22743;BME280;11538;48.884;8.696;2023-11-19T07:50:42;98580.38;;;12.24;100.00
22743;BME280;11538;48.884;8.696;2023-11-19T07:53:09;98567.13;;;12.23;100.00
22743;BME280;11538;48.884;8.696;2023-11-19T07:55:36;98575.75;;;12.25;100.00
22743;BME280;11538;48.884;8.696;2023-11-19T07:58:09;98574.50;;;12.31;100.00
22743;BME280;11538;48.884;8.696;2023-11-19T08:00:36;98574.34;;;12.36;100.00
22743;BME280;11538;48.884;8.696;2023-11-19T08:03:04;98568.25;;;12.39;100.00
22743;BME280;11538;48.884;8.696;2023-11-19T08:05:31;98573.22;;;12.46;100.00
22743;BME280;11538;48.884;8.696;2023-11-19T08:07:59;98575.63;;;12.48;100.00
22743;BME280;11538;48.884;8.696;2023-11-19T08:10:26;98583.31;;;12.46;100.00
22743;BME280;11538;48.884;8.696;2023-11-19T08:12:54;98598.03;;;12.45;100.00
22743;BME280;11538;48.884;8.696;2023-11-19T08:15:21;98582.69;;;12.49;100.00
22743;BME280;11538;48.884;8.696;2023-11-19T08:17:50;98594.69;;;12.56;100.00
22743;BME280;11538;48.884;8.696;2023-11-19T08:20:18;98589.91;;;12.62;100.00
22743;BME280;11538;48.884;8.696;2023-11-19T08:22:45;98593.09;;;12.64;100.00
22743;BME280;11538;48.884;8.696;2023-11-19T08:25:11;98598.56;;;12.73;100.00
22743;BME280;11538;48.884;8.696;2023-11-19T08:27:39;98591.38;;;12.86;100.00
22743;BME280;11538;48.884;8.696;2023-11-19T08:30:06;98578.88;;;13.02;100.00
22743;BME280;11538;48.884;8.696;2023-11-19T08:32:34;98605.13;;;13.16;100.00
22743;BME280;11538;48.884;8.696;2023-11-19T08:35:02;98600.81;;;13.24;100.00
22743;BME280;11538;48.884;8.696;2023-11-19T08:37:29;98620.84;;;13.37;100.00
22743;BME280;11538;48.884;8.696;2023-11-19T08:39:56;98625.66;;;13.57;100.00
22743;BME280;11538;48.884;8.696;2023-11-19T08:42:23;98609.09;;;13.71;100.00
22743;BME280;11538;48.884;8.696;2023-11-19T08:44:50;98611.63;;;13.77;100.00
22743;BME280;11538;48.884;8.696;2023-11-19T08:47:20;98605.22;;;13.81;100.00
22743;BME280;11538;48.884;8.696;2023-11-19T08:49:52;98611.75;;;13.89;100.00
22743;BME280;11538;48.884;8.696;2023-11-19T08:52:23;98625.56;;;13.84;100.00
22743;BME280;11538;48.884;8.696;2023-11-19T08:54:50;98622.19;;;13.87;100.00
22743;BME280;11538;48.884;8.696;2023-11-19T08:57:17;98608.91;;;13.85;100.00
22743;BME280;11538;48.884;8.696;2023-11-19T08:59:44;98623.34;;;13.77;100.00
22743;BME280;11538;48.884;8.696;2023-11-19T09:02:12;98638.72;;;13.82;100.00
22743;BME280;11538;48.884;8.696;2023-11-19T09:04:39;98629.75;;;13.81;100.00
22743;BME280;11538;48.884;8.696;2023-11-19T09:07:08;98636.81;;;13.73;100.00
22743;BME280;11538;48.884;8.696;2023-11-19T09:09:36;98625.13;;;13.64;100.00
22743;BME280;11538;48.884;8.696;2023-11-19T09:12:04;98639.88;;;13.63;100.00
22743;BME280;11538;48.884;8.696;2023-11-19T09:14:31;98628.03;;;13.59;100.00
22743;BME280;11538;48.884;8.696;2023-11-19T09:16:58;98633.50;;;13.50;100.00
22743;BME280;11538;48.884;8.696;2023-11-19T09:19:26;98634.13;;;13.56;100.00
22743;BME280;11538;48.884;8.696;2023-11-19T09:21:53;98637.63;;;13.74;100.00
22743;BME280;11538;48.884;8.696;2023-11-19T09:24:20;98642.56;;;13.89;100.00
22743;BME280;11538;48.884;8.696;2023-11-19T09:26:47;98628.72;;;14.03;100.00
22743;BME280;11538;48.884;8.696;2023-11-19T09:29:14;98632.03;;;14.18;100.00
22743;BME280;11538;48.884;8.696;2023-11-19T09:31:41;98649.66;;;14.29;100.00
22743;BME280;11538;48.884;8.696;2023-11-19T09:34:08;98635.94;;;14.38;100.00
22743;BME280;11538;48.884;8.696;2023-11-19T09:36:38;98636.22;;;14.45;100.00
22743;BME280;11538;48.884;8.696;2023-11-19T09:39:05;98631.22;;;14.56;100.00
22743;BME280;11538;48.884;8.696;2023-11-19T09:41:35;98629.09;;;14.62;100.00
22743;BME280;11538;48.884;8.696;2023-11-19T09:44:02;98615.88;;;14.73;100.00
22743;BME280;11538;48.884;8.696;2023-11-19T09:46:30;98637.31;;;14.83;100.00
22743;BME280;11538;48.884;8.696;2023-11-19T09:48:57;98645.47;;;14.92;100.00
22743;BME280;11538;48.884;8.696;2023-11-19T09:51:26;98643.78;;;15.00;100.00
22743;BME280;11538;48.884;8.696;2023-11-19T09:53:54;98644.25;;;15.02;100.00
22743;BME280;11538;48.884;8.696;2023-11-19T09:56:22;98646.69;;;15.03;100.00
22743;BME280;11538;48.884;8.696;2023-11-19T09:58:49;98635.28;;;15.01;100.00
22743;BME280;11538;48.884;8.696;2023-11-19T10:01:16;98645.06;;;15.02;100.00
22743;BME280;11538;48.884;8.696;2023-11-19T10:03:47;98630.69;;;14.93;100.00
22743;BME280;11538;48.884;8.696;2023-11-19T10:06:16;98629.75;;;14.89;100.00
22743;BME280;11538;48.884;8.696;2023-11-19T10:08:44;98624.28;;;14.89;100.00
22743;BME280;11538;48.884;8.696;2023-11-19T10:11:11;98623.28;;;14.94;100.00
22743;BME280;11538;48.884;8.696;2023-11-19T10:13:40;98622.03;;;14.91;100.00
22743;BME280;11538;48.884;8.696;2023-11-19T10:16:12;98625.69;;;14.95;100.00
22743;BME280;11538;48.884;8.696;2023-11-19T10:18:58;98625.16;;;15.02;100.00
22743;BME280;11538;48.884;8.696;2023-11-19T10:21:25;98622.69;;;15.09;100.00
22743;BME280;11538;48.884;8.696;2023-11-19T10:23:56;98619.41;;;15.16;100.00
22743;BME280;11538;48.884;8.696;2023-11-19T10:26:26;98603.53;;;15.30;100.00
22743;BME280;11538;48.884;8.696;2023-11-19T10:28:55;98611.41;;;15.32;100.00
22743;BME280;11538;48.884;8.696;2023-11-19T10:31:22;98613.94;;;15.37;100.00
22743;BME280;11538;48.884;8.696;2023-11-19T10:33:53;98601.31;;;15.45;100.00
22743;BME280;11538;48.884;8.696;2023-11-19T10:36:20;98609.09;;;15.55;100.00
22743;BME280;11538;48.884;8.696;2023-11-19T10:38:55;98612.16;;;15.54;100.00
22743;BME280;11538;48.884;8.696;2023-11-19T10:41:31;98624.50;;;15.60;100.00
22743;BME280;11538;48.884;8.696;2023-11-19T10:43:59;98625.41;;;15.64;100.00
22743;BME280;11538;48.884;8.696;2023-11-19T10:46:41;98611.88;;;15.80;100.00
22743;BME280;11538;48.884;8.696;2023-11-19T10:49:12;98604.53;;;15.93;100.00
22743;BME280;11538;48.884;8.696;2023-11-19T10:51:50;98609.91;;;16.02;100.00
22743;BME280;11538;48.884;8.696;2023-11-19T10:54:19;98614.13;;;16.12;100.00
22743;BME280;11538;48.884;8.696;2023-11-19T10:56:59;98613.13;;;16.16;100.00
22743;BME280;11538;48.884;8.696;2023-11-19T10:59:31;98615.50;;;16.30;100.00
22743;BME280;11538;48.884;8.696;2023-11-19T11:02:07;98603.09;;;16.33;100.00
22743;BME280;11538;48.884;8.696;2023-11-19T11:04:40;98606.72;;;16.12;100.00
22743;BME280;11538;48.884;8.696;2023-11-19T11:07:09;98608.75;;;15.90;100.00
22743;BME280;11538;48.884;8.696;2023-11-19T11:09:36;98605.34;;;15.93;100.00
22743;BME280;11538;48.884;8.696;2023-11-19T11:12:06;98612.97;;;16.13;100.00
22743;BME280;11538;48.884;8.696;2023-11-19T11:14:37;98588.94;;;16.43;100.00
22743;BME280;11538;48.884;8.696;2023-11-19T11:17:05;98601.00;;;16.55;100.00
22743;BME280;11538;48.884;8.696;2023-11-19T11:19:35;98604.31;;;16.73;100.00
22743;BME280;11538;48.884;8.696;2023-11-19T11:22:04;98598.84;;;16.48;100.00
22743;BME280;11538;48.884;8.696;2023-11-19T11:25:15;98605.69;;;16.66;100.00
22743;BME280;11538;48.884;8.696;2023-11-19T11:27:57;98602.22;;;16.82;100.00
22743;BME280;11538;48.884;8.696;2023-11-19T11:30:39;98595.38;;;17.17;100.00
22743;BME280;11538;48.884;8.696;2023-11-19T11:33:34;98594.88;;;17.39;100.00
22743;BME280;11538;48.884;8.696;2023-11-19T11:36:21;98593.22;;;17.51;98.82
22743;BME280;11538;48.884;8.696;2023-11-19T11:38:53;98591.19;;;17.64;96.28
22743;BME280;11538;48.884;8.696;2023-11-19T11:41:38;98587.72;;;17.67;98.65
22743;BME280;11538;48.884;8.696;2023-11-19T11:44:05;98577.66;;;17.71;94.43
22743;BME280;11538;48.884;8.696;2023-11-19T11:49:02;98587.03;;;17.25;100.00
22743;BME280;11538;48.884;8.696;2023-11-19T11:57:07;98589.56;;;17.47;92.79
22743;BME280;11538;48.884;8.696;2023-11-19T11:59:49;98591.22;;;17.80;92.50
22743;BME280;11538;48.884;8.696;2023-11-19T12:02:20;98577.13;;;17.65;92.83
22743;BME280;11538;48.884;8.696;2023-11-19T12:04:52;98577.38;;;17.76;96.83
22743;BME280;11538;48.884;8.696;2023-11-19T12:07:24;98581.06;;;18.12;93.33
22743;BME280;11538;48.884;8.696;2023-11-19T12:10:06;98578.34;;;17.68;92.19
22743;BME280;11538;48.884;8.696;2023-11-19T12:12:39;98574.13;;;17.87;92.48
22743;BME280;11538;48.884;8.696;2023-11-19T12:15:09;98566.97;;;17.98;92.50
22743;BME280;11538;48.884;8.696;2023-11-19T12:17:42;98552.34;;;18.26;92.20
22743;BME280;11538;48.884;8.696;2023-11-19T12:20:12;98552.09;;;18.15;87.22
22743;BME280;11538;48.884;8.696;2023-11-19T12:22:45;98535.16;;;18.29;88.12
22743;BME280;11538;48.884;8.696;2023-11-19T12:25:13;98535.03;;;17.90;87.21
22743;BME280;11538;48.884;8.696;2023-11-19T12:27:42;98536.59;;;17.43;89.46
22743;BME280;11538;48.884;8.696;2023-11-19T12:30:11;98545.34;;;17.04;90.52
22743;BME280;11538;48.884;8.696;2023-11-19T12:32:43;98549.41;;;17.10;87.88
22743;BME280;11538;48.884;8.696;2023-11-19T12:35:12;98550.09;;;17.35;89.71
22743;BME280;11538;48.884;8.696;2023-11-19T12:37:44;98531.66;;;17.20;87.28
22743;BME280;11538;48.884;8.696;2023-11-19T12:40:21;98534.81;;;17.34;91.24
22743;BME280;11538;48.884;8.696;2023-11-19T12:42:53;98531.47;;;17.57;86.96
22743;BME280;11538;48.884;8.696;2023-11-19T12:45:21;98533.84;;;17.43;89.89
22743;BME280;11538;48.884;8.696;2023-11-19T12:48:04;98531.69;;;17.36;88.63
22743;BME280;11538;48.884;8.696;2023-11-19T12:50:57;98526.88;;;17.17;88.09
22743;BME280;11538;48.884;8.696;2023-11-19T12:53:27;98526.25;;;17.07;91.30
22743;BME280;11538;48.884;8.696;2023-11-19T12:55:55;98526.59;;;16.65;90.60
22743;BME280;11538;48.884;8.696;2023-11-19T12:58:34;98528.75;;;16.06;91.54
22743;BME280;11538;48.884;8.696;2023-11-19T13:01:07;98522.81;;;16.29;94.42
22743;BME280;11538;48.884;8.696;2023-11-19T13:03:38;98533.72;;;16.41;90.67
22743;BME280;11538;48.884;8.696;2023-11-19T13:06:11;98525.19;;;16.18;91.27
22743;BME280;11538;48.884;8.696;2023-11-19T13:08:42;98524.19;;;15.98;93.78
22743;BME280;11538;48.884;8.696;2023-11-19T13:11:12;98518.97;;;15.92;94.20